Aeroporto :
LOGIN :

Iscrizione | Disclaimer

   EN    FR    IT 

 










Sommario :    VFR   VFR Marginale   IFR   IFR Intensivo   IFR Molto Intensivo
Visibilità : 
Base nubi : 
>= 8 km
>= 3000ft
5 / 8 km
1000 / 3000 ft
1500m / 5 km
500 / 1000 ft
800 / 1500m
200 / 500 ft
< 800m
< 200 ft
Simboli :   Temporali  Nebbia  Neve Forte  Precipitazioni Forti  Vento > 20 kt
SIGMETs :   Varie  Temporali  Ghiacco  Turbolenza  Onda orograficha  Ceneri Vulcaniche






- Altitudine del aeroporto : 424 ft
- Codice IATA : QGY


LHPR - Györ Per

ULTIMO METAR :
  • 291245Z AUTO 29009KT 260V320 9999 BKN025 BKN097 06/00 Q1021 NOSIG

METARs OBSOLETI :
  • 291215Z AUTO 31011KT CAVOK 05/M00 Q1021 NOSIG
  • 291145Z AUTO 30010KT 9999 FEW027 SCT102 05/M00 Q1021 NOSIG
  • 291115Z AUTO 31011KT CAVOK 05/M01 Q1021 NOSIG
  • 291045Z AUTO 29010KT CAVOK 04/M01 Q1022 NOSIG

TAF TAF LHPR
Valido dal 29 a 12 ore il 29 a 21 ore UTC


291115Z 2912/2921 30011KT 9999 SCT030
BECMG 2912/2915 SCT015 BKN030
BECMG 2915/2918 30006KT



MetMap, La meteo Aeronautica in un colpo d'occhio ! - Copyright ORBIFLY Dicembre 2007 - Disclaimer

ORBIFLY MET'MAP TEAM :

Programmazione e sviluppo : Alexandra Zaïnal
Concezione : Baudouin d'Aumeries
Aiuto per la programmazione : Marc-Olivier Méhu
Supporto tecnico e logistico : Manuel Goepfert
Aiuto per la traduzione : Arnaldo La Scala

Contatto : metmap@orbifly.com




FONTI E CREDITI :

   NOAA